createdAt,value
2023-04-14T00:00:02.863Z,84
2023-04-14T00:01:03.960Z,83.6
2023-04-14T00:02:04.626Z,83.7
2023-04-14T00:03:02.495Z,83.8
2023-04-14T00:04:05.614Z,83.8
2023-04-14T00:05:02.911Z,83.7
2023-04-14T00:06:02.924Z,83.7
2023-04-14T00:07:02.386Z,83.6
2023-04-14T00:08:02.919Z,83.5
2023-04-14T00:09:04.136Z,83.5
2023-04-14T00:10:02.879Z,83.6
2023-04-14T00:11:02.396Z,83.7
2023-04-14T00:12:02.849Z,83.8
2023-04-14T00:13:02.362Z,83.9
2023-04-14T00:14:05.578Z,83.7
2023-04-14T00:15:04.665Z,83.6
2023-04-14T00:16:04.071Z,83.6
2023-04-14T00:17:02.908Z,83.9
2023-04-14T00:18:02.577Z,83.7
2023-04-14T00:19:04.833Z,83.6
2023-04-14T00:20:04.139Z,83.5
2023-04-14T00:21:02.960Z,83.4
2023-04-14T00:22:02.459Z,83.7
2023-04-14T00:23:02.986Z,83.7
2023-04-14T00:24:03.558Z,83.7
2023-04-14T00:25:03.562Z,83.4
2023-04-14T00:26:02.463Z,83.4
2023-04-14T00:27:03.033Z,83.3
2023-04-14T00:28:02.446Z,83.1
2023-04-14T00:29:04.553Z,83.2
2023-04-14T00:30:02.408Z,83.4
2023-04-14T00:31:03.007Z,83.4
2023-04-14T00:32:02.476Z,83.2
2023-04-14T00:33:04.357Z,83.4
2023-04-14T00:34:03.713Z,83.5
2023-04-14T00:35:02.616Z,83.6
2023-04-14T00:36:03.172Z,83.7
2023-04-14T00:37:02.636Z,83.4
2023-04-14T00:38:03.080Z,82.9
2023-04-14T00:39:02.878Z,82.8
2023-04-14T00:40:03.098Z,83
2023-04-14T00:41:04.208Z,83.5
2023-04-14T00:42:04.707Z,83.8
2023-04-14T00:43:02.531Z,84.1
2023-04-14T00:44:05.417Z,84.1
2023-04-14T00:45:02.987Z,84.3
2023-04-14T00:46:02.298Z,84.5
2023-04-14T00:47:02.791Z,84.6
2023-04-14T00:48:02.297Z,84.7
2023-04-14T00:49:04.594Z,84.9
2023-04-14T00:50:02.795Z,84.9
2023-04-14T00:51:02.802Z,84.9
2023-04-14T00:52:02.205Z,84.7
2023-04-14T00:53:04.465Z,84.5
2023-04-14T00:54:05.000Z,84.4
2023-04-14T00:55:02.980Z,84.4
2023-04-14T00:56:02.936Z,84.3
2023-04-14T00:57:02.428Z,84.4
2023-04-14T00:58:04.469Z,84.5
2023-04-14T00:59:02.697Z,84.7
2023-04-14T01:00:02.770Z,84.8
2023-04-14T01:01:02.338Z,84.6
2023-04-14T01:02:03.801Z,84.6
2023-04-14T01:03:03.436Z,84.6
2023-04-14T01:04:05.601Z,84.7
2023-04-14T01:05:03.288Z,84.4
2023-04-14T01:06:02.349Z,84.1
2023-04-14T01:07:02.985Z,84
2023-04-14T01:08:02.334Z,84
2023-04-14T01:09:02.951Z,84
2023-04-14T01:10:02.400Z,83.9
2023-04-14T01:11:04.589Z,83.9
2023-04-14T01:12:02.348Z,84.2
2023-04-14T01:13:02.828Z,84.3
2023-04-14T01:14:05.114Z,84.2
2023-04-14T01:15:02.943Z,84.1
2023-04-14T01:16:03.089Z,83.8
2023-04-14T01:17:04.255Z,84
2023-04-14T01:18:03.127Z,84
2023-04-14T01:19:02.661Z,84
2023-04-14T01:20:03.099Z,84.3
2023-04-14T01:21:04.276Z,84.5
2023-04-14T01:22:04.743Z,84.2
2023-04-14T01:23:02.566Z,84
2023-04-14T01:24:04.804Z,84
2023-04-14T01:25:03.123Z,83.7
2023-04-14T01:26:04.502Z,83.8
2023-04-14T01:27:04.127Z,84
2023-04-14T01:28:02.727Z,84.3
2023-04-14T01:29:02.838Z,84.6
2023-04-14T01:30:02.749Z,84.8
2023-04-14T01:31:02.322Z,85
2023-04-14T01:32:02.772Z,85
2023-04-14T01:33:02.306Z,85
2023-04-14T01:34:05.615Z,85
2023-04-14T01:35:04.698Z,84.9
2023-04-14T01:36:03.033Z,84.7
2023-04-14T01:37:02.517Z,84.7
2023-04-14T01:38:02.981Z,84.6
2023-04-14T01:39:04.301Z,84.4
2023-04-14T01:40:03.008Z,84.5
2023-04-14T01:41:03.117Z,84.9
2023-04-14T01:42:02.617Z,85.1
2023-04-14T01:43:03.119Z,85.2
2023-04-14T01:44:03.589Z,85.1
2023-04-14T01:45:03.637Z,85
2023-04-14T01:46:02.745Z,85.1
2023-04-14T01:47:04.814Z,85.1
2023-04-14T01:48:02.706Z,85.2
2023-04-14T01:49:03.341Z,85.2
2023-04-14T01:50:02.613Z,85
2023-04-14T01:51:04.913Z,85.1
2023-04-14T01:52:02.519Z,85.1
2023-04-14T01:53:03.021Z,85.2
2023-04-14T01:54:05.757Z,85.1
2023-04-14T01:55:04.877Z,85
2023-04-14T01:56:02.292Z,85
2023-04-14T01:57:02.757Z,85.1
2023-04-14T01:58:02.306Z,85.1
2023-04-14T01:59:02.830Z,85.1
2023-04-14T02:00:03.890Z,85.1
2023-04-14T02:01:02.724Z,85.2
2023-04-14T02:02:02.184Z,85.2
2023-04-14T02:03:02.800Z,85.1
2023-04-14T02:04:04.501Z,85.1
2023-04-14T02:05:02.818Z,85.1
2023-04-14T02:06:02.233Z,85
2023-04-14T02:07:02.679Z,85
2023-04-14T02:09:05.083Z,84.8
2023-04-14T02:10:02.480Z,84.7
2023-04-14T02:11:02.939Z,84.8
2023-04-14T02:12:02.368Z,84.7
2023-04-14T02:13:02.860Z,84.7
2023-04-14T02:14:04.778Z,84.7
2023-04-14T02:15:02.237Z,84.6
2023-04-14T02:16:02.688Z,84.6
2023-04-14T02:17:02.250Z,84.7
2023-04-14T02:18:02.744Z,84.7
2023-04-14T02:19:03.849Z,84.5
2023-04-14T02:20:02.641Z,84.7
2023-04-14T02:21:05.000Z,84.7
2023-04-14T02:22:02.612Z,84.6
2023-04-14T02:23:04.764Z,84.6
2023-04-14T02:24:05.268Z,84.8
2023-04-14T02:25:02.944Z,84.9
2023-04-14T02:27:02.582Z,84.9
2023-04-14T02:28:04.910Z,85
2023-04-14T02:29:02.957Z,85
2023-04-14T02:30:03.485Z,84.8
2023-04-14T02:31:02.648Z,84.7
2023-04-14T02:32:03.103Z,84.5
2023-04-14T02:33:04.261Z,84.4
2023-04-14T02:34:05.620Z,84.5
2023-04-14T02:35:04.768Z,84.7
2023-04-14T02:36:02.518Z,84.8
2023-04-14T02:37:03.124Z,85
2023-04-14T02:38:02.428Z,85
2023-04-14T02:39:03.200Z,84.9
2023-04-14T02:40:02.461Z,84.9
2023-04-14T02:41:02.986Z,84.9
2023-04-14T02:42:02.509Z,84.8
2023-04-14T02:43:02.930Z,84.9
2023-04-14T02:44:04.931Z,85.1
2023-04-14T02:45:02.330Z,85.3
2023-04-14T02:46:02.775Z,85.3
2023-04-14T02:47:02.335Z,85.3
2023-04-14T02:48:02.952Z,85.1
2023-04-14T02:49:02.696Z,85
2023-04-14T02:50:02.972Z,84.8
2023-04-14T02:51:02.353Z,84.9
2023-04-14T02:52:02.850Z,85.1
2023-04-14T02:53:02.471Z,85.1
2023-04-14T02:54:05.291Z,85.1
2023-04-14T02:55:03.038Z,85.1
2023-04-14T02:56:03.935Z,85.1
2023-04-14T02:57:02.612Z,85.2
2023-04-14T02:58:03.094Z,85.2
2023-04-14T02:59:03.078Z,85
2023-04-14T03:00:03.354Z,84.8
2023-04-14T03:01:03.408Z,84.8
2023-04-14T03:02:04.000Z,84.8
2023-04-14T03:03:02.838Z,84.9
2023-04-14T03:04:05.913Z,85.1
2023-04-14T03:05:04.254Z,85.2
2023-04-14T03:06:04.360Z,85.4
2023-04-14T03:07:02.229Z,85.3
2023-04-14T03:08:04.281Z,85.3
2023-04-14T03:09:02.989Z,85.5
2023-04-14T03:10:03.392Z,85.6
2023-04-14T03:11:02.126Z,85.7
2023-04-14T03:12:04.374Z,85.8
2023-04-14T03:13:04.768Z,85.8
2023-04-14T03:14:05.255Z,85.9
2023-04-14T03:15:02.634Z,85.9
2023-04-14T03:16:03.212Z,85.9
2023-04-14T03:17:02.635Z,86
2023-04-14T03:18:03.114Z,86
2023-04-14T03:19:04.225Z,86
2023-04-14T03:20:03.143Z,86
2023-04-14T03:21:02.594Z,86
2023-04-14T03:22:03.085Z,85.9
2023-04-14T03:23:02.525Z,85.9
2023-04-14T03:24:04.208Z,85.8
2023-04-14T03:25:02.621Z,85.7
2023-04-14T03:26:04.858Z,85.7
2023-04-14T03:27:02.599Z,85.7
2023-04-14T03:28:03.068Z,85.8
2023-04-14T03:29:04.288Z,86
2023-04-14T03:30:03.168Z,86.1
2023-04-14T03:31:04.336Z,86.1
2023-04-14T03:32:03.080Z,86
2023-04-14T03:33:02.636Z,86
2023-04-14T03:34:04.000Z,86.1
2023-04-14T03:35:04.263Z,86.1
2023-04-14T03:36:04.682Z,86.2
2023-04-14T03:37:02.521Z,86.2
2023-04-14T03:38:03.080Z,86.3
2023-04-14T03:39:02.780Z,86.4
2023-04-14T03:40:03.088Z,86.4
2023-04-14T03:41:02.531Z,86.5
2023-04-14T03:42:02.991Z,86.5
2023-04-14T03:43:02.514Z,86.5
2023-04-14T03:44:04.041Z,86.6
2023-04-14T03:45:02.650Z,86.6
2023-04-14T03:46:03.160Z,86.6
2023-04-14T03:47:04.345Z,86.6
2023-04-14T03:48:03.114Z,86.6
2023-04-14T03:49:02.698Z,86.6
2023-04-14T03:50:03.817Z,86.6
2023-04-14T03:51:02.681Z,86.6
2023-04-14T03:52:02.170Z,86.6
2023-04-14T03:53:04.369Z,86.6
2023-04-14T03:54:04.824Z,86.6
2023-04-14T03:55:02.464Z,86.6
2023-04-14T03:56:02.850Z,86.6
2023-04-14T03:57:03.037Z,86.6
2023-04-14T03:58:02.558Z,86.6
2023-04-14T03:59:05.186Z,86.6
2023-04-14T04:00:02.579Z,86.7
2023-04-14T04:01:03.052Z,86.7
2023-04-14T04:02:04.275Z,86.8
2023-04-14T04:03:03.220Z,86.8
2023-04-14T04:04:04.004Z,86.9
2023-04-14T04:05:03.928Z,86.9
2023-04-14T04:06:02.707Z,86.8
2023-04-14T04:07:02.226Z,86.8
2023-04-14T04:08:02.691Z,86.7
2023-04-14T04:09:02.461Z,86.7
2023-04-14T04:10:03.523Z,86.6
2023-04-14T04:11:02.274Z,86.6
2023-04-14T04:12:02.685Z,86.5
2023-04-14T04:14:03.531Z,86.5
2023-04-14T04:16:03.424Z,86.5
2023-04-14T04:17:03.112Z,86.5
2023-04-14T04:18:04.324Z,86.4
2023-04-14T04:19:03.286Z,86.5
2023-04-14T04:20:03.379Z,86.5
2023-04-14T04:21:03.806Z,86.6
2023-04-14T04:22:04.274Z,86.6
2023-04-14T04:23:03.078Z,86.7
2023-04-14T04:24:05.933Z,86.7
2023-04-14T04:25:02.809Z,86.7
2023-04-14T04:26:04.758Z,86.7
2023-04-14T04:27:02.516Z,86.7
2023-04-14T04:28:02.991Z,86.7
2023-04-14T04:29:02.758Z,86.7
2023-04-14T04:30:03.119Z,86.6
2023-04-14T04:31:04.315Z,86.6
2023-04-14T04:32:03.068Z,86.5
2023-04-14T04:33:02.654Z,86.5
2023-04-14T04:34:05.446Z,86.5
2023-04-14T04:35:04.670Z,86.5
2023-04-14T04:36:02.417Z,86.6
2023-04-14T04:37:04.655Z,86.7
2023-04-14T04:38:02.413Z,86.7
2023-04-14T04:39:05.173Z,86.8
2023-04-14T04:40:02.759Z,86.9
2023-04-14T04:41:04.865Z,86.9
2023-04-14T04:42:04.299Z,86.9
2023-04-14T04:43:04.877Z,86.9
2023-04-14T04:44:03.525Z,86.9
2023-04-14T04:45:02.401Z,86.9
2023-04-14T04:46:04.399Z,86.9
2023-04-14T04:47:02.243Z,86.9
2023-04-14T04:48:02.715Z,86.8
2023-04-14T04:49:02.713Z,86.8
2023-04-14T04:50:02.808Z,86.8
2023-04-14T04:51:02.237Z,86.8
2023-04-14T04:52:02.772Z,86.8
2023-04-14T04:53:02.309Z,86.8
2023-04-14T04:54:05.628Z,86.7
2023-04-14T04:55:05.133Z,86.8
2023-04-14T04:56:02.290Z,86.8
2023-04-14T04:57:04.465Z,86.8
2023-04-14T04:58:02.411Z,86.8
2023-04-14T04:59:05.143Z,86.9
2023-04-14T05:00:04.243Z,86.9
2023-04-14T05:01:03.047Z,86.9
2023-04-14T05:04:04.198Z,86.9
2023-04-14T05:05:03.195Z,86.9
2023-04-14T05:06:03.902Z,86.9
2023-04-14T05:07:02.289Z,86.9
2023-04-14T05:08:02.771Z,86.9
2023-04-14T05:09:02.556Z,86.9
2023-04-14T05:10:04.608Z,86.9
2023-04-14T05:11:02.197Z,87
2023-04-14T05:12:02.746Z,86.9
2023-04-14T05:13:02.219Z,86.9
2023-04-14T05:14:03.562Z,86.9
2023-04-14T05:15:02.691Z,86.9
2023-04-14T05:16:02.799Z,86.9
2023-04-14T05:17:02.201Z,86.9
2023-04-14T05:18:02.697Z,86.9
2023-04-14T05:19:02.336Z,86.8
2023-04-14T05:20:04.354Z,86.8
2023-04-14T05:22:02.619Z,86.8
2023-04-14T05:23:03.071Z,86.8
2023-04-14T05:24:05.140Z,86.8
2023-04-14T05:25:02.787Z,86.7
2023-04-14T05:26:22.215Z,86.7
2023-04-14T05:27:13.021Z,86.7
2023-04-14T05:28:04.505Z,86.8
2023-04-14T05:29:04.150Z,86.7
2023-04-14T05:30:04.528Z,86.7
2023-04-14T05:31:02.338Z,86.6
2023-04-14T05:32:02.813Z,86.6
2023-04-14T05:33:02.302Z,86.6
2023-04-14T05:34:05.225Z,86.5
2023-04-14T05:35:03.115Z,86.4
2023-04-14T05:36:03.167Z,86.3
2023-04-14T05:37:02.605Z,86.1
2023-04-14T05:38:03.193Z,86
2023-04-14T05:39:02.851Z,86
2023-04-14T05:40:03.168Z,85.9
2023-04-14T05:41:04.296Z,86
2023-04-14T05:42:04.753Z,85.9
2023-04-14T05:43:02.620Z,85.7
2023-04-14T05:44:04.403Z,85.3
2023-04-14T05:45:03.103Z,85.3
2023-04-14T05:46:03.954Z,85.3
2023-04-14T05:47:04.469Z,85.5
2023-04-14T05:49:04.353Z,85.7
2023-04-14T05:50:03.285Z,85.8
2023-04-14T05:51:02.612Z,85.9
2023-04-14T05:52:03.238Z,86.1
2023-04-14T05:53:02.690Z,86.1
2023-04-14T05:54:03.475Z,86
2023-04-14T05:55:03.023Z,85.9
2023-04-14T05:56:02.248Z,85.9
2023-04-14T05:57:02.781Z,85.9
2023-04-14T05:58:03.877Z,85.9
2023-04-14T05:59:02.963Z,85.9
2023-04-14T06:00:02.357Z,85.9
2023-04-14T06:01:02.728Z,85.9
2023-04-14T06:02:02.282Z,85.9
2023-04-14T06:03:03.052Z,85.8
2023-04-14T06:04:05.222Z,85.8
2023-04-14T06:05:02.920Z,85.8
2023-04-14T06:06:02.873Z,85.7
2023-04-14T06:07:02.365Z,85.6
2023-04-14T06:08:04.555Z,85.5
2023-04-14T06:09:03.225Z,85.5
2023-04-14T06:10:04.460Z,85.4
2023-04-14T06:11:04.674Z,85.2
2023-04-14T06:12:02.529Z,85.1
2023-04-14T06:13:03.093Z,85
2023-04-14T06:14:03.460Z,84.9
2023-04-14T06:15:04.435Z,84.8
2023-04-14T06:16:03.148Z,84.9
2023-04-14T06:17:02.597Z,84.9
2023-04-14T06:18:03.105Z,84.9
2023-04-14T06:19:04.580Z,84.9
2023-04-14T06:20:04.725Z,85
2023-04-14T06:21:02.629Z,85
2023-04-14T06:22:03.098Z,84.9
2023-04-14T06:23:04.283Z,84.8
2023-04-14T06:24:04.094Z,84.9
2023-04-14T06:25:02.820Z,84.9
2023-04-14T06:26:03.090Z,84.9
2023-04-14T06:27:02.523Z,84.9
2023-04-14T06:28:04.713Z,85
2023-04-14T06:29:03.108Z,85
2023-04-14T06:30:05.122Z,85
2023-04-14T06:31:02.558Z,84.9
2023-04-14T06:32:03.071Z,84.8
2023-04-14T06:33:02.467Z,84.8
2023-04-14T06:34:04.115Z,84.7
2023-04-14T06:35:04.288Z,84.7
2023-04-14T06:36:04.683Z,84.7
2023-04-14T06:37:02.451Z,84.6
2023-04-14T06:38:02.924Z,84.5
2023-04-14T06:39:04.713Z,84.7
2023-04-14T06:40:03.406Z,84.9
2023-04-14T06:41:02.597Z,84.8
2023-04-14T06:42:03.088Z,84.7
2023-04-14T06:43:02.540Z,84.7
2023-04-14T06:44:04.003Z,84.6
2023-04-14T06:45:04.481Z,84.5
2023-04-14T06:46:04.711Z,84.5
2023-04-14T06:47:02.530Z,84.4
2023-04-14T06:48:03.072Z,84.3
2023-04-14T06:49:04.341Z,84.2
2023-04-14T06:50:04.851Z,84.2
2023-04-14T06:51:04.167Z,84
2023-04-14T06:52:02.934Z,84.1
2023-04-14T06:53:02.370Z,84.1
2023-04-14T06:54:05.409Z,83.8
2023-04-14T06:55:02.955Z,83.5
2023-04-14T06:56:03.969Z,83.6
2023-04-14T06:57:02.741Z,83.7
2023-04-14T06:58:02.219Z,83.8
2023-04-14T06:59:02.711Z,83.6
2023-04-14T07:00:02.435Z,83.4
2023-04-14T07:01:02.740Z,83.3
2023-04-14T07:02:03.389Z,83.7
2023-04-14T07:03:03.829Z,83.6
2023-04-14T07:04:05.947Z,83.6
2023-04-14T07:05:03.070Z,83.7
2023-04-14T07:06:02.380Z,83.8
2023-04-14T07:07:02.980Z,84
2023-04-14T07:08:02.463Z,83.9
2023-04-14T07:09:04.960Z,83.9
2023-04-14T07:10:02.871Z,83.7
2023-04-14T07:11:02.938Z,83.6
2023-04-14T07:12:02.448Z,83.4
2023-04-14T07:13:04.803Z,83.6
2023-04-14T07:14:05.488Z,83.8
2023-04-14T07:15:02.862Z,83.8
2023-04-14T07:16:02.446Z,83.6
2023-04-14T07:17:02.848Z,83.2
2023-04-14T07:18:04.165Z,83.1
2023-04-14T07:19:04.519Z,83.3
2023-04-14T07:20:02.309Z,83.5
2023-04-14T07:21:02.760Z,82.9
2023-04-14T07:22:03.960Z,82.5
2023-04-14T07:23:03.002Z,82.5
2023-04-14T07:24:04.338Z,82.4
2023-04-14T07:25:04.013Z,82.4
2023-04-14T07:26:02.991Z,82.6
2023-04-14T07:27:02.457Z,82.9
2023-04-14T07:28:04.104Z,82.9
2023-04-14T07:29:04.163Z,83.1
2023-04-14T07:30:03.094Z,83.5
2023-04-14T07:31:02.624Z,83.6
2023-04-14T07:32:02.310Z,83.6
2023-04-14T07:33:02.815Z,83
2023-04-14T07:34:04.830Z,82.7
2023-04-14T07:35:02.249Z,82.8
2023-04-14T07:36:03.970Z,82.9
2023-04-14T07:37:02.217Z,83.3
2023-04-14T07:38:02.770Z,83.5
2023-04-14T07:39:04.180Z,84
2023-04-14T07:40:03.026Z,84.2
2023-04-14T07:41:02.542Z,84.3
2023-04-14T07:42:02.867Z,84.4
2023-04-14T07:43:03.236Z,84.4
2023-04-14T07:44:03.901Z,84.6
2023-04-14T07:45:02.584Z,84.6
2023-04-14T07:46:04.100Z,84
2023-04-14T07:47:03.079Z,84
2023-04-14T07:48:02.858Z,84
2023-04-14T07:49:02.394Z,84.2
2023-04-14T07:50:02.999Z,84.2
2023-04-14T07:51:02.575Z,84.1
2023-04-14T07:52:02.930Z,84.5
2023-04-14T07:53:02.434Z,84.7
2023-04-14T07:54:05.580Z,85.1
2023-04-14T07:55:03.274Z,85.5
2023-04-14T07:56:02.663Z,85.6
2023-04-14T07:57:02.343Z,85.7
2023-04-14T07:58:02.970Z,85.7
2023-04-14T07:59:02.901Z,86
2023-04-14T08:00:02.272Z,86.1
2023-04-14T08:01:02.737Z,86
2023-04-14T08:02:02.473Z,86.1
2023-04-14T08:03:03.271Z,86.2
2023-04-14T08:04:04.113Z,86.1
2023-04-14T08:05:03.418Z,86.1
2023-04-14T08:06:02.729Z,86
2023-04-14T08:07:04.011Z,86.1
2023-04-14T08:08:02.891Z,86.1
2023-04-14T08:09:03.222Z,86.1
2023-04-14T08:10:05.471Z,86.2
2023-04-14T08:11:02.755Z,85.9
2023-04-14T08:12:02.328Z,85
2023-04-14T08:13:03.804Z,84.7
2023-04-14T08:14:04.880Z,84.8
2023-04-14T08:15:02.348Z,84.5
2023-04-14T08:16:03.126Z,84.8
2023-04-14T08:17:02.488Z,85.2
2023-04-14T08:18:02.206Z,85.2
2023-04-14T08:19:05.570Z,85.4
2023-04-14T08:20:03.128Z,85.5
2023-04-14T08:21:02.671Z,85.3
2023-04-14T08:22:02.188Z,85
2023-04-14T08:23:02.714Z,84.7
2023-04-14T08:24:05.528Z,84.6
2023-04-14T08:25:02.879Z,84.7
2023-04-14T08:26:02.541Z,84.3
2023-04-14T08:27:02.214Z,84.5
2023-04-14T08:28:02.739Z,84.7
2023-04-14T08:29:03.131Z,84.6
2023-04-14T08:30:02.663Z,84.9
2023-04-14T08:31:03.096Z,85.1
2023-04-14T08:32:04.367Z,84.7
2023-04-14T08:33:02.327Z,84.5
2023-04-14T08:34:05.353Z,84.4
2023-04-14T08:35:37.870Z,84.7
2023-04-14T08:36:02.679Z,84.5
2023-04-14T08:37:02.527Z,84.2
2023-04-14T08:38:02.449Z,84.4
2023-04-14T08:39:03.315Z,84.8
2023-04-14T08:40:03.592Z,85
2023-04-14T08:41:02.609Z,84.5
2023-04-14T08:42:02.253Z,84.8
2023-04-14T08:43:02.767Z,85.3
2023-04-14T08:44:03.300Z,85.5
2023-04-14T08:45:04.890Z,85.5
2023-04-14T08:46:04.488Z,85.4
2023-04-14T08:47:02.265Z,85.3
2023-04-14T08:48:02.883Z,85.1
2023-04-14T08:49:04.665Z,84.8
2023-04-14T08:50:03.048Z,84.7
2023-04-14T08:51:02.553Z,84.9
2023-04-14T08:52:04.686Z,85.6
2023-04-14T08:53:02.554Z,85.4
2023-04-14T08:54:06.036Z,85.5
2023-04-14T08:55:02.754Z,84.9
2023-04-14T08:56:03.051Z,84.8
2023-04-14T08:57:02.463Z,84.7
2023-04-14T08:58:03.022Z,84.9
2023-04-14T08:59:03.020Z,85.1
2023-04-14T09:00:03.018Z,84.4
2023-04-14T09:01:02.579Z,84.2
2023-04-14T09:02:04.450Z,84.1
2023-04-14T09:03:04.139Z,84.1
2023-04-14T09:04:05.453Z,84.4
2023-04-14T09:05:04.519Z,84.9
2023-04-14T09:06:02.311Z,84.9
2023-04-14T09:07:02.925Z,84.8
2023-04-14T09:08:02.536Z,84.8
2023-04-14T09:10:03.888Z,84.3
2023-04-14T09:11:04.283Z,84.8
2023-04-14T09:12:02.192Z,85.1
2023-04-14T09:13:02.754Z,85
2023-04-14T09:14:03.682Z,84.9
2023-04-14T09:15:03.707Z,84.2
2023-04-14T09:16:02.681Z,83.8
2023-04-14T09:17:02.450Z,84.3
2023-04-14T09:18:02.986Z,84.4
2023-04-14T09:19:06.747Z,83.5
2023-04-14T09:20:35.590Z,83.5
2023-04-14T09:21:49.887Z,83.9
2023-04-14T09:22:02.271Z,84.3
2023-04-14T09:23:04.593Z,84.4
2023-04-14T09:24:03.997Z,83.5
2023-04-14T09:25:04.263Z,84.1
2023-04-14T09:26:02.461Z,83.9
2023-04-14T09:27:02.997Z,82.9
2023-04-14T09:28:02.598Z,83.1
2023-04-14T09:29:02.432Z,83.7
2023-04-14T09:30:04.448Z,83.4
2023-04-14T09:31:02.439Z,84.1
2023-04-14T09:32:02.922Z,83.6
2023-04-14T09:33:02.550Z,83.2
2023-04-14T09:34:05.319Z,82.9
2023-04-14T09:35:02.885Z,83.4
2023-04-14T09:36:03.044Z,83.5
2023-04-14T09:37:04.275Z,83.9
2023-04-14T09:38:02.215Z,83.9
2023-04-14T09:39:04.661Z,83.8
2023-04-14T09:40:02.570Z,83.6
2023-04-14T09:41:02.355Z,83.1
2023-04-14T09:42:02.867Z,82.5
2023-04-14T09:43:02.626Z,82.8
2023-04-14T09:44:03.998Z,82.7
2023-04-14T09:45:02.750Z,83.5
2023-04-14T09:46:04.306Z,83.8
2023-04-14T09:47:02.538Z,84.2
2023-04-14T09:48:02.371Z,83.9
2023-04-14T09:49:03.133Z,83.9
2023-04-14T09:50:24.236Z,83.5
2023-04-14T09:51:02.404Z,84.1
2023-04-14T09:52:02.873Z,84.3
2023-04-14T09:53:02.369Z,84.5
2023-04-14T09:54:06.184Z,84.8
2023-04-14T09:55:03.115Z,84.8
2023-04-14T09:56:02.417Z,84.6
2023-04-14T09:57:02.314Z,84.2
2023-04-14T09:58:03.041Z,84.4
2023-04-14T09:59:05.365Z,84.1
2023-04-14T10:00:02.755Z,83.4
2023-04-14T10:01:02.287Z,83
2023-04-14T10:02:03.135Z,83.1
2023-04-14T10:03:04.326Z,83.4
2023-04-14T10:04:05.262Z,84
2023-04-14T10:05:03.156Z,83.3
2023-04-14T10:06:02.793Z,83.7
2023-04-14T10:07:02.636Z,83.6
2023-04-14T10:08:02.235Z,83.3
2023-04-14T10:09:04.675Z,83.6
2023-04-14T10:10:02.377Z,84.2
2023-04-14T10:11:02.939Z,84.1
2023-04-14T10:12:04.348Z,83.9
2023-04-14T10:13:03.004Z,83.3
2023-04-14T10:14:05.463Z,83.2
2023-04-14T10:15:05.423Z,83.6
2023-04-14T10:16:02.726Z,83.7
2023-04-14T10:17:02.411Z,83.3
2023-04-14T10:18:03.115Z,83.7
2023-04-14T10:19:03.709Z,82.7
2023-04-14T10:20:02.982Z,82
2023-04-14T10:21:04.801Z,81.6
2023-04-14T10:22:02.673Z,81.6
2023-04-14T10:23:03.876Z,82.2
2023-04-14T10:24:05.578Z,82.5
2023-04-14T10:25:03.525Z,83.1
2023-04-14T10:26:02.777Z,83.4
2023-04-14T10:27:02.661Z,81.5
2023-04-14T10:28:02.294Z,81.7
2023-04-14T10:29:03.256Z,80.1
2023-04-14T10:30:02.497Z,80
2023-04-14T10:31:03.107Z,79.7
2023-04-14T10:32:02.838Z,80.4
2023-04-14T10:33:02.417Z,80.6
2023-04-14T10:34:05.240Z,80.8
2023-04-14T10:35:03.201Z,80.9
2023-04-14T10:36:03.972Z,81.9
2023-04-14T10:37:04.542Z,82.1
2023-04-14T10:38:02.373Z,82.3
2023-04-14T10:39:03.734Z,81.8
2023-04-14T10:40:03.342Z,82
2023-04-14T10:41:02.584Z,80.9
2023-04-14T10:42:03.914Z,80.3
2023-04-14T10:43:02.754Z,80.7
2023-04-14T10:44:05.366Z,81.2
2023-04-14T10:45:03.081Z,81.3
2023-04-14T10:46:02.783Z,80.6
2023-04-14T10:47:04.296Z,81
2023-04-14T10:48:02.288Z,81.4
2023-04-14T10:49:03.092Z,81.4
2023-04-14T10:50:02.590Z,81
2023-04-14T10:51:02.292Z,80.1
2023-04-14T10:52:02.916Z,81.1
2023-04-14T10:53:04.367Z,81.8
2023-04-14T10:54:03.608Z,80.2
2023-04-14T10:55:02.853Z,79.4
2023-04-14T10:56:02.608Z,79.6
2023-04-14T10:57:02.777Z,79.9
2023-04-14T10:58:03.278Z,79.7
2023-04-14T10:59:04.921Z,79.1
2023-04-14T11:00:02.973Z,79.2
2023-04-14T11:01:02.636Z,79.7
2023-04-14T11:04:03.741Z,79.1
2023-04-14T11:05:02.564Z,79.6
2023-04-14T11:06:02.376Z,79.1
2023-04-14T11:07:02.739Z,79.4
2023-04-14T11:08:03.296Z,79.7
2023-04-14T11:09:04.542Z,80.4
2023-04-14T11:10:03.350Z,80.2
2023-04-14T11:11:03.001Z,79.8
2023-04-14T11:12:02.554Z,79.5
2023-04-14T11:13:03.082Z,79.7
2023-04-14T11:14:05.523Z,80.1
2023-04-14T11:15:04.648Z,80.2
2023-04-14T11:17:04.766Z,81.2
2023-04-14T11:18:04.701Z,80.5
2023-04-14T11:19:04.293Z,80.3
2023-04-14T11:21:03.449Z,80.7
2023-04-14T11:22:02.388Z,80.4
2023-04-14T11:23:04.592Z,81.1
2023-04-14T11:24:03.513Z,81
2023-04-14T11:25:02.320Z,81.7
2023-04-14T11:26:02.845Z,81.9
2023-04-14T11:27:04.072Z,82.1
2023-04-14T11:28:02.910Z,81.8
2023-04-14T11:29:02.861Z,83.1
2023-04-14T11:30:03.062Z,83.4
2023-04-14T11:31:03.042Z,83
2023-04-14T11:32:02.695Z,82.1
2023-04-14T11:33:02.276Z,82
2023-04-14T11:34:06.019Z,83.1
2023-04-14T11:35:02.837Z,83.5
2023-04-14T11:36:02.551Z,82.9
2023-04-14T11:37:03.019Z,81.9
2023-04-14T11:38:02.590Z,81.2
2023-04-14T11:39:05.403Z,81.6
2023-04-14T11:40:03.944Z,81.5
2023-04-14T11:41:02.731Z,81.2
2023-04-14T11:42:04.099Z,81.7
2023-04-14T11:43:02.987Z,82
2023-04-14T11:44:03.789Z,82
2023-04-14T11:45:02.539Z,81.6
2023-04-14T11:46:04.806Z,81.4
2023-04-14T11:47:02.724Z,81.5
2023-04-14T11:48:02.349Z,82.6
2023-04-14T11:49:04.555Z,83
2023-04-14T11:50:02.548Z,81.7
2023-04-14T11:51:04.857Z,81.1
2023-04-14T11:52:02.845Z,81.4
2023-04-14T11:53:04.218Z,82.2
2023-04-14T11:54:05.054Z,82.4
2023-04-14T11:55:03.088Z,82.2
2023-04-14T11:56:02.526Z,81.5
2023-04-14T11:57:03.956Z,82.9
2023-04-14T11:58:03.035Z,81.7
2023-04-14T11:59:04.940Z,81
2023-04-14T12:00:02.802Z,80.6
2023-04-14T12:01:02.537Z,81
2023-04-14T12:02:02.298Z,81.2
2023-04-14T12:03:03.300Z,81
2023-04-14T12:04:05.830Z,81.3
2023-04-14T12:05:04.706Z,82.7
2023-04-14T12:06:02.362Z,82.2
2023-04-14T12:07:03.145Z,80.9
2023-04-14T12:08:02.918Z,79.4
2023-04-14T12:09:05.010Z,79.3
2023-04-14T12:10:03.857Z,79.4
2023-04-14T12:11:02.842Z,78.3
2023-04-14T12:12:02.698Z,78.4
2023-04-14T12:13:02.593Z,80.1
2023-04-14T12:14:05.604Z,79.4
2023-04-14T12:15:02.834Z,79.7
2023-04-14T12:17:05.272Z,78.7
2023-04-14T12:18:03.909Z,78.4
2023-04-14T12:19:05.264Z,78.6
2023-04-14T12:20:02.767Z,78.7
2023-04-14T12:21:02.781Z,78.7
2023-04-14T12:22:02.362Z,78.6
2023-04-14T12:23:02.985Z,78.6
2023-04-14T12:24:05.020Z,79.5
2023-04-14T12:25:04.386Z,79.6
2023-04-14T12:26:04.681Z,80.2
2023-04-14T12:27:02.639Z,80.5
2023-04-14T12:28:03.188Z,80.7
2023-04-14T12:29:02.924Z,81.8
2023-04-14T12:30:02.286Z,80.6
2023-04-14T12:31:02.981Z,80
2023-04-14T12:32:02.573Z,79.7
2023-04-14T12:33:03.111Z,79.8
2023-04-14T12:34:05.717Z,80.9
2023-04-14T12:35:02.574Z,79.9
2023-04-14T12:36:02.925Z,79.7
2023-04-14T12:37:02.438Z,79.6
2023-04-14T12:38:03.032Z,79.8
2023-04-14T12:39:02.940Z,79.7
2023-04-14T12:40:03.736Z,78.8
2023-04-14T12:41:02.697Z,79
2023-04-14T12:42:03.966Z,79.8
2023-04-14T12:43:04.618Z,79.6
2023-04-14T12:44:03.628Z,79.2
2023-04-14T12:45:02.365Z,78.5
2023-04-14T12:46:02.938Z,78.8
2023-04-14T12:47:02.517Z,80.2
2023-04-14T12:48:03.183Z,80.1
2023-04-14T12:49:04.394Z,79.1
2023-04-14T12:50:03.898Z,78.7
2023-04-14T12:51:04.455Z,80
2023-04-14T12:52:02.362Z,79.4
2023-04-14T12:53:02.922Z,79.9
2023-04-14T12:54:05.475Z,79.3
2023-04-14T12:55:03.686Z,80.1
2023-04-14T12:56:02.640Z,82
2023-04-14T12:57:04.993Z,81.6
2023-04-14T12:58:02.931Z,79.5
2023-04-14T12:59:03.663Z,79
2023-04-14T13:00:04.577Z,78.3
2023-04-14T13:01:02.165Z,77.8
2023-04-14T13:02:03.907Z,78
2023-04-14T13:03:05.311Z,79.1
2023-04-14T13:04:03.697Z,78.2
2023-04-14T13:05:02.816Z,77.3
2023-04-14T13:06:02.227Z,76.8
2023-04-14T13:07:02.974Z,77
2023-04-14T13:08:02.581Z,77.5
2023-04-14T13:09:04.376Z,77.5
2023-04-14T13:10:04.876Z,78
2023-04-14T13:11:02.905Z,79.4
2023-04-14T13:12:04.213Z,79
2023-04-14T13:13:02.211Z,78.5
2023-04-14T13:14:05.901Z,78.2
2023-04-14T13:15:03.258Z,79.4
2023-04-14T13:16:14.525Z,77.5
2023-04-14T13:17:02.813Z,77.6
2023-04-14T13:18:02.432Z,77.2
2023-04-14T13:19:03.028Z,77.4
2023-04-14T13:20:02.557Z,77.3
2023-04-14T13:21:02.410Z,78.2
2023-04-14T13:22:02.267Z,78.8
2023-04-14T13:23:02.249Z,78.1
2023-04-14T13:24:03.478Z,77.7
2023-04-14T13:25:04.033Z,78.1
2023-04-14T13:26:02.998Z,78.6
2023-04-14T13:27:04.680Z,77.9
2023-04-14T13:28:04.354Z,77.7
2023-04-14T13:29:05.931Z,77.6
2023-04-14T13:30:02.815Z,78
2023-04-14T13:31:03.063Z,77.6
2023-04-14T13:32:02.645Z,77.9
2023-04-14T13:33:02.256Z,77.8
2023-04-14T13:34:04.458Z,78.1
2023-04-14T13:35:03.131Z,78.1
2023-04-14T13:36:02.952Z,77.6
2023-04-14T13:37:02.204Z,78.3
2023-04-14T13:38:02.765Z,78.5